x

Western Caribbean - 195 Nm Wsw Of Negril Jamiaca (42057) Wave Buoy

7:50pm - Tue 24th May 2016 All times are UTC.

  • Sig Wave height 4.3ft
  • Swell Direction
  • Peak Period 9s
  • Average Period 5s
  • Wind
    13mph, 16mph gusts
  • Sea Temp 84°f
  • Air Temp 84°f
  • Sea Pressure 1013.4mb

More Historic Weather Station data

Upgrade to MSW Pro to gain access to the past 30 days of data for over 8000 Wavebouys and Weather Stations around the globe.

Join Pro

Comparision Forecast

View Surf forecast
   
Tue 05/24 7:50pm 4.5ft 9s 5s 13 16 mph 1013.4mb 84f 84f
6:50pm 4.5ft 9s 5s 9 11 mph 1014.3mb 84f 84f
5:50pm 4.5ft 9s 6s 13 16 mph 1014.8mb 84f 84f
4:50pm 5ft 8s 6s 13 16 mph 1014.8mb 84f 84f
3:50pm 5ft 9s 6s 11 13 mph 1014.6mb 84f 84f
2:50pm 5ft 9s 6s 11 16 mph 1014.1mb 84f 84f
1:50pm 5.5ft 9s 6s 13 16 mph 1013.9mb 84f 84f
12:50pm 4.5ft 9s 6s 13 16 mph 1013.5mb 84f 84f
11:50am 4.5ft 9s 6s 13 18 mph 1013.2mb 84f 83f
10:50am 4ft 9s 5s 13 18 mph 1012.6mb 84f 83f
9:50am 4ft 8s 6s 11 13 mph 1011.8mb 84f 83f
8:50am 4ft 8s 5s 11 13 mph 1011.9mb 84f 83f
7:50am 3.5ft 8s 5s 11 13 mph 1012.3mb 84f 83f
6:50am 3.5ft 7s 5s 13 16 mph 1012.5mb 84f 83f
5:50am 3.5ft 6s 5s 13 16 mph 1012.9mb 84f 83f
4:50am 3.5ft 8s 5s 16 18 mph 1013.4mb 84f 84f
3:50am 3.5ft 7s 5s 16 18 mph 1013.4mb 84f 84f
2:50am 3.5ft 9s 5s 13 16 mph 1013mb 84f 84f
1:50am 3.5ft 8s 5s 16 18 mph 1012.4mb 84f 84f
12:50am 3.5ft 8s 5s 13 16 mph 1011.9mb 84f 84f
Mon 05/23 11:50pm 3.5ft 8s 5s 11 13 mph 1011.1mb 84f 84f
10:50pm 3.5ft 9s 5s 11 13 mph 1011mb 85f 84f
9:50pm 3.5ft 9s 5s 11 13 mph 1010.7mb 85f 84f
8:50pm 3.5ft 9s 5s 11 13 mph 1011.1mb 85f 82f
7:50pm 3.5ft 8s 5s 11 13 mph 1011.6mb 85f 82f
6:50pm 3.5ft 8s 5s 11 13 mph 1012.3mb 85f 84f
5:50pm 3.5ft 9s 5s 11 13 mph 1012.7mb 85f 83f
4:50pm 3.5ft 9s 5s 13 16 mph 1012.5mb 84f 83f
3:50pm 4.5ft 9s 5s 11 13 mph 1012.5mb 84f 83f
2:50pm 4.5ft 9s 5s 16 20 mph 1012mb 84f 82f
1:50pm 4.5ft 8s 5s 13 16 mph 1012.1mb 84f 84f
12:50pm 4ft 8s 5s 13 16 mph 1011.6mb 84f 83f
11:50am 4ft 8s 5s 13 18 mph 1011.5mb 84f 83f
10:50am 4ft 8s  -  13 16 mph 1011.1mb 84f 83f
9:50am 4.5ft 8s 5s 13 16 mph 1011.1mb 84f 83f
8:50am 4.5ft 8s 5s 11 16 mph 1011.4mb 84f 82f
7:50am 4.5ft 9s 5s 13 16 mph 1011.7mb 84f 83f
6:50am 4.5ft 8s 5s 13 18 mph 1012.1mb 84f 83f
5:50am 4ft 8s 5s 13 16 mph 1012.7mb 84f 83f
4:50am 4ft 9s 5s 13 18 mph 1013mb 84f 83f
3:50am 4ft 9s 5s 13 16 mph 1013.3mb 84f 83f
2:50am 4.5ft 8s 5s 13 16 mph 1012.9mb 84f 83f
1:50am 4ft 9s 5s 13 16 mph 1012.6mb 84f 83f
12:50am 4.5ft 9s 6s 13 16 mph 1011.7mb 84f 83f
Sun 05/22 11:50pm 4.5ft 9s 5s 16 18 mph 1011mb 84f 83f
10:50pm 4ft 9s 5s 13 16 mph 1010.7mb 85f 83f
9:50pm 4.5ft 8s 5s 13 16 mph 1010.5mb 85f 83f
8:50pm 4.5ft 9s 6s 13 16 mph 1010.9mb 85f 84f
7:50pm 4ft 9s 5s 13 16 mph 1011.7mb 85f 83f
6:50pm 4.5ft 9s 5s 13 16 mph 1012.2mb 85f 83f
5:50pm 4.5ft 9s 5s 13 16 mph 1012.9mb 84f 84f
4:50pm 4.5ft 8s 5s 16 18 mph 1013.5mb 84f 83f
3:50pm 4.5ft 9s 5s 18 20 mph 1013.7mb 84f 83f
2:50pm 4.5ft 9s 5s 16 18 mph 1013.7mb 84f 83f
1:50pm 4.5ft 9s 5s 13 18 mph 1013.6mb 84f 83f
12:50pm 4ft 8s 5s 13 18 mph 1013.3mb 84f 83f
11:50am 4.5ft 9s 5s 13 16 mph 1013.1mb 84f 83f
10:50am 4ft 9s 5s 13 16 mph 1012.6mb 84f 83f
9:50am 4ft 9s 6s 13 16 mph 1012.5mb 84f 83f
8:50am 4.5ft 9s 6s 13
mph
1012.5mb 84f 82f
7:50am 4.5ft 8s 6s 13 16 mph 1012.9mb 84f 83f
6:50am 4.5ft 9s 6s 13 18 mph 1013.2mb 84f 83f
5:50am 4ft 8s 5s 13 18 mph 1013.6mb 84f 83f
4:50am 4.5ft 9s 6s 13 16 mph 1014.6mb 84f 83f
3:50am 4.5ft 9s 6s 13 16 mph 1014.7mb 84f 83f
2:50am 5ft 9s 6s 13 16 mph 1014.4mb 84f 83f
1:50am 4.5ft 8s 6s 11 13 mph 1014.1mb 84f 83f
12:50am 4.5ft 9s 6s 13
mph
1013.5mb 84f 83f
Sat 05/21 11:50pm 4.5ft 8s 5s 13 16 mph 1013.1mb 84f 83f
10:50pm 4ft 6s 5s 16 18 mph 1012.7mb 84f 84f
9:50pm 4.5ft 5s 5s 16 18 mph 1012.7mb 84f 84f
8:50pm 4.5ft 6s 5s 16 18 mph 1012.8mb 84f 84f
7:50pm 4.5ft 8s 5s 16 18 mph 1013.3mb 84f 84f
6:50pm 4.5ft 6s 5s 16 20 mph 1014mb 84f 84f
5:50pm 4.5ft 7s 5s 16 20 mph 1014.4mb 84f 84f
4:50pm 4.5ft 6s 5s 18 20 mph 1014.9mb 84f 84f
3:50pm 4.5ft 8s 5s 18 20 mph 1015.2mb 84f 84f
2:50pm 5ft 8s 5s 18 20 mph 1015.3mb 84f 84f
1:50pm 5ft 7s 5s 16 18 mph 1015.2mb 84f 83f
12:50pm 5ft 9s 5s 16 18 mph 1014.7mb 84f 83f
11:50am 5ft 9s 5s 16 20 mph 1014.3mb 84f 83f
10:50am 5.5ft 8s 6s 18 20 mph 1013.6mb 84f 83f
9:50am 5.5ft 9s 6s 16 20 mph 1013.5mb 84f 83f
8:50am 6ft 9s 6s 16 20 mph 1013.4mb 84f 83f
7:50am 5ft 9s 6s 16 20 mph 1013.3mb 84f 83f
6:50am 5.5ft 9s 6s 16 18 mph 1013.7mb 84f 83f
5:50am 5ft 8s 5s 13 16 mph 1014.2mb 84f 83f
4:50am 5.5ft 9s 6s 13 18 mph 1014.6mb 84f 83f
3:50am 5.5ft 8s 6s 16 18 mph 1014.8mb 84f 84f
2:50am 5ft 9s 5s 16 18 mph 1014.3mb 84f 83f
1:50am 5.5ft 8s 6s 16 18 mph 1013.9mb 84f 83f
12:50am 5.5ft 7s 6s 18 20 mph 1013.6mb 84f 84f
Fri 05/20 11:50pm 5.5ft 9s 5s 16 18 mph 1012.9mb 84f 84f
10:50pm 5.5ft 6s 5s 16 20 mph 1012.6mb 84f 84f
9:50pm 5ft 7s 5s 16 20 mph 1012.9mb 84f 84f